Time;durP1;ratioP1;P1;durP2;ratioP2;P2;SDS_P1;SDS_P2;PMS_P1;PMS_P2;Temp;Humidity;BMP_temperature;BMP_pressure;BME280_temperature;BME280_humidity;BME280_pressure;Samples;Min_cycle;Max_cycle;Signal;HPM_P1;HPM_P2
2021/05/17 00:00:23;;;;;;;1.90;1.43;;;8.70;99.90;;;;;;5012727;28;20443;-61
2021/05/17 00:02:51;;;;;;;1.33;1.33;;;8.70;99.90;;;;;;5012859;28;20177;-60
2021/05/17 00:05:17;;;;;;;1.20;1.17;;;8.70;99.90;;;;;;5012819;28;20428;-61
2021/05/17 00:07:43;;;;;;;1.00;1.00;;;8.70;99.90;;;;;;5012833;28;20431;-61
2021/05/17 00:10:10;;;;;;;1.20;1.20;;;8.70;99.90;;;;;;5012696;28;20436;-61
2021/05/17 00:12:36;;;;;;;0.97;0.97;;;8.70;99.90;;;;;;5012676;28;20181;-61
2021/05/17 00:15:07;;;;;;;1.23;1.13;;;8.80;99.90;;;;;;5012684;28;20405;-61
2021/05/17 00:17:33;;;;;;;2.10;1.30;;;8.70;99.90;;;;;;5012541;28;20451;-61
2021/05/17 00:20:02;;;;;;;1.13;1.03;;;8.80;99.90;;;;;;5012279;28;20940;-61
2021/05/17 00:22:29;;;;;;;1.83;1.30;;;8.70;99.90;;;;;;5012548;28;21156;-60
2021/05/17 00:24:54;;;;;;;1.30;1.30;;;8.70;99.90;;;;;;5012708;28;20462;-60
2021/05/17 00:27:20;;;;;;;1.10;1.10;;;8.70;99.90;;;;;;5012493;28;20852;-61
2021/05/17 00:29:46;;;;;;;1.10;1.10;;;8.70;99.90;;;;;;5012125;28;20188;-60
2021/05/17 00:32:12;;;;;;;1.70;1.30;;;8.70;99.90;;;;;;5012393;28;20165;-59
2021/05/17 00:34:39;;;;;;;1.20;1.10;;;8.70;99.90;;;;;;5012435;28;20408;-61
2021/05/17 00:37:05;;;;;;;5.30;1.47;;;8.70;99.90;;;;;;5012328;28;20401;-61
2021/05/17 00:39:30;;;;;;;1.70;1.60;;;8.60;99.90;;;;;;5011915;28;20424;-61
2021/05/17 00:41:56;;;;;;;3.33;2.20;;;8.60;99.90;;;;;;5012299;28;20474;-61
2021/05/17 00:44:22;;;;;;;1.60;1.40;;;8.70;99.90;;;;;;5012255;28;20215;-60
2021/05/17 00:46:48;;;;;;;1.20;1.20;;;8.70;99.90;;;;;;5012182;28;20589;-60
2021/05/17 00:49:14;;;;;;;1.03;1.03;;;8.70;99.90;;;;;;5011943;28;20189;-61
2021/05/17 00:51:40;;;;;;;1.03;1.03;;;8.70;99.90;;;;;;5012145;28;20400;-61
2021/05/17 00:54:06;;;;;;;1.47;1.33;;;8.70;99.90;;;;;;5011839;28;20466;-61
2021/05/17 00:56:33;;;;;;;1.50;1.40;;;8.70;99.90;;;;;;5012154;28;20411;-60
2021/05/17 00:58:59;;;;;;;1.47;1.37;;;8.90;99.90;;;;;;5011963;28;20442;-60
2021/05/17 01:01:24;;;;;;;1.33;1.33;;;8.80;99.90;;;;;;5011962;28;20412;-61
2021/05/17 01:03:50;;;;;;;2.77;1.60;;;8.70;99.90;;;;;;5011956;28;20196;-61
2021/05/17 01:06:18;;;;;;;1.60;1.50;;;8.70;99.90;;;;;;5012055;28;20520;-62
2021/05/17 01:08:58;;;;;;;1.50;1.40;;;8.80;99.90;;;;;;5012837;28;20196;-62
2021/05/17 01:11:28;;;;;;;1.87;1.73;;;8.90;99.90;;;;;;5011957;28;20396;-61
2021/05/17 01:13:56;;;;;;;1.50;1.50;;;8.80;99.90;;;;;;5011949;28;20423;-61
2021/05/17 01:16:23;;;;;;;1.47;1.43;;;8.90;99.90;;;;;;5011957;28;20546;-61
2021/05/17 01:18:51;;;;;;;1.67;1.50;;;8.90;99.90;;;;;;5011828;28;20413;-62
2021/05/17 01:21:19;;;;;;;1.37;1.37;;;8.90;99.90;;;;;;5011729;28;20432;-61
2021/05/17 01:23:54;;;;;;;1.80;1.70;;;8.90;99.90;;;;;;5011745;28;20459;-62
2021/05/17 01:26:22;;;;;;;2.17;1.97;;;8.90;99.90;;;;;;5011880;28;20407;-61
2021/05/17 01:28:49;;;;;;;2.00;1.90;;;8.90;99.90;;;;;;5011930;28;20483;-62
2021/05/17 01:31:16;;;;;;;1.80;1.70;;;8.90;99.90;;;;;;5011552;28;20424;-62
2021/05/17 01:33:44;;;;;;;1.87;1.80;;;8.90;99.90;;;;;;5011706;28;20419;-61
2021/05/17 01:36:12;;;;;;;1.90;1.80;;;8.90;99.90;;;;;;5011789;28;20491;-61
2021/05/17 01:38:40;;;;;;;2.13;1.90;;;8.90;99.90;;;;;;5011747;28;20435;-62
2021/05/17 01:41:11;;;;;;;1.97;1.87;;;8.90;99.90;;;;;;5011304;28;20444;-62
2021/05/17 01:43:45;;;;;;;2.53;2.10;;;8.90;99.90;;;;;;5011641;28;20451;-62
2021/05/17 01:46:17;;;;;;;8.80;2.17;;;8.90;99.90;;;;;;5011571;28;20404;-62
2021/05/17 01:48:43;;;;;;;5.60;1.80;;;8.80;99.90;;;;;;5011621;28;20764;-62
2021/05/17 01:51:13;;;;;;;3.47;2.07;;;8.90;99.90;;;;;;5011261;28;20428;-62
2021/05/17 01:53:40;;;;;;;3.17;2.13;;;8.90;99.90;;;;;;5011574;28;20427;-61
2021/05/17 01:56:07;;;;;;;2.03;1.87;;;8.90;99.90;;;;;;5011758;28;20444;-62
2021/05/17 01:58:36;;;;;;;2.40;1.90;;;8.90;99.90;;;;;;5011494;28;20412;-62
2021/05/17 02:01:06;;;;;;;2.00;1.90;;;8.90;99.90;;;;;;5011126;28;20526;-61
2021/05/17 02:03:42;;;;;;;6.40;2.10;;;8.90;99.90;;;;;;5011571;28;20501;-62
2021/05/17 02:06:09;;;;;;;2.40;2.27;;;8.90;99.90;;;;;;5011467;28;20400;-62
2021/05/17 02:08:41;;;;;;;2.50;2.07;;;8.90;99.90;;;;;;5014989;28;20403;-61
2021/05/17 02:11:15;;;;;;;4.70;3.80;;;9.00;99.90;;;;;;5014495;28;20936;-61
2021/05/17 02:13:41;;;;;;;3.90;2.43;;;8.90;99.90;;;;;;5014926;28;20427;-61
2021/05/17 02:16:11;;;;;;;2.40;2.20;;;9.00;99.90;;;;;;5014962;28;20412;-61
2021/05/17 02:18:37;;;;;;;4.20;2.77;;;8.90;99.90;;;;;;5014798;28;20415;-61
2021/05/17 02:21:04;;;;;;;3.03;2.80;;;9.00;99.90;;;;;;5014431;28;20424;-62
2021/05/17 02:23:30;;;;;;;2.30;2.20;;;9.00;99.90;;;;;;5014493;28;20536;-62
2021/05/17 02:25:56;;;;;;;2.13;1.90;;;9.00;99.90;;;;;;5014770;28;20412;-61
2021/05/17 02:28:22;;;;;;;2.20;1.60;;;8.90;99.90;;;;;;5014483;28;20912;-60
2021/05/17 02:30:48;;;;;;;3.03;2.77;;;8.90;99.90;;;;;;5014225;28;20431;-61
2021/05/17 02:33:13;;;;;;;2.73;1.93;;;9.00;99.90;;;;;;5014517;28;20172;-62
2021/05/17 02:35:40;;;;;;;3.23;3.07;;;8.90;99.90;;;;;;5014511;28;20188;-61
2021/05/17 02:38:07;;;;;;;1.90;1.80;;;9.00;99.90;;;;;;5014545;28;20177;-60
2021/05/17 02:40:33;;;;;;;2.13;1.90;;;8.90;99.90;;;;;;5013924;28;20996;-62
2021/05/17 02:43:08;;;;;;;2.23;1.90;;;8.90;99.90;;;;;;5014335;28;20435;-61
2021/05/17 02:45:35;;;;;;;2.27;2.07;;;8.90;99.90;;;;;;5014336;28;20462;-60
2021/05/17 02:48:05;;;;;;;5.00;2.20;;;9.00;99.90;;;;;;5014347;28;20889;-62
2021/05/17 02:50:37;;;;;;;1.93;1.83;;;9.00;99.90;;;;;;5013793;28;20924;-61
2021/05/17 02:53:25;;;;;;;2.80;2.50;;;9.00;99.90;;;;;;5014304;28;20416;-62
2021/05/17 02:55:54;;;;;;;3.53;1.80;;;9.00;99.90;;;;;;5014161;28;20943;-62
2021/05/17 02:58:23;;;;;;;1.93;1.83;;;8.90;99.90;;;;;;5014104;28;20925;-62
2021/05/17 03:01:06;;;;;;;3.20;1.70;;;8.90;99.90;;;;;;5013708;28;20431;-61
2021/05/17 03:03:36;;;;;;;1.70;1.60;;;8.90;99.90;;;;;;5014142;28;20451;-62
2021/05/17 03:06:06;;;;;;;3.33;2.10;;;8.90;99.90;;;;;;5014002;28;20797;-61
2021/05/17 03:08:45;;;;;;;2.90;1.70;;;8.90;99.90;;;;;;5013996;28;20408;-62
2021/05/17 03:11:14;;;;;;;2.27;2.03;;;8.90;99.90;;;;;;5013593;28;20412;-62
2021/05/17 03:13:41;;;;;;;1.43;1.40;;;8.90;99.90;;;;;;5013647;28;20435;-62
2021/05/17 03:16:08;;;;;;;1.97;1.87;;;8.80;99.90;;;;;;5013723;28;20412;-61
2021/05/17 03:18:33;;;;;;;2.10;1.40;;;8.80;99.90;;;;;;5012569;28;20980;-62
2021/05/17 03:21:00;;;;;;;3.57;2.00;;;8.80;99.90;;;;;;5013321;28;20515;-61
2021/05/17 03:23:26;;;;;;;1.67;1.57;;;8.80;99.90;;;;;;5013517;28;20228;-62
2021/05/17 03:25:52;;;;;;;2.67;1.70;;;8.80;99.90;;;;;;5013487;28;20520;-62
2021/05/17 03:28:18;;;;;;;1.73;1.57;;;8.80;99.90;;;;;;5013446;28;20169;-61
2021/05/17 03:30:43;;;;;;;4.87;1.53;;;8.80;99.90;;;;;;5013099;28;20763;-61
2021/05/17 03:33:09;;;;;;;1.80;1.70;;;8.80;99.90;;;;;;5013423;28;20224;-62
2021/05/17 03:35:34;;;;;;;6.83;2.10;;;8.80;99.90;;;;;;5013385;28;20173;-61
2021/05/17 03:38:00;;;;;;;1.40;1.40;;;8.80;99.90;;;;;;5013351;28;20284;-60
2021/05/17 03:40:26;;;;;;;5.23;1.63;;;8.70;99.90;;;;;;5012896;28;20279;-62
2021/05/17 03:42:51;;;;;;;4.13;1.97;;;8.70;99.90;;;;;;5013088;28;20169;-62
2021/05/17 03:45:17;;;;;;;2.33;1.47;;;8.70;99.90;;;;;;5013158;28;20506;-62
2021/05/17 03:47:43;;;;;;;1.53;1.30;;;8.80;99.90;;;;;;5013416;28;20734;-61
2021/05/17 03:50:11;;;;;;;1.87;1.77;;;8.80;99.90;;;;;;5012706;28;20207;-62
2021/05/17 03:52:37;;;;;;;1.40;1.30;;;8.70;99.90;;;;;;5013111;28;20169;-62
2021/05/17 03:55:04;;;;;;;2.10;1.50;;;8.70;99.90;;;;;;5013034;28;20415;-61
2021/05/17 03:57:30;;;;;;;2.00;1.90;;;8.70;99.90;;;;;;5012884;28;20161;-62
2021/05/17 03:59:56;;;;;;;1.80;1.60;;;8.70;99.90;;;;;;5012712;28;21013;-62
2021/05/17 04:02:24;;;;;;;2.93;1.57;;;8.70;99.90;;;;;;5012838;28;20421;-61
2021/05/17 04:07:29;;;;;;;5.07;3.53;;;8.80;99.90;;;;;;5012949;28;20409;-62
2021/05/17 04:15:22;;;;;;;1.30;1.20;;;8.70;99.90;;;;;;5012746;28;20403;-61
2021/05/17 04:17:48;;;;;;;1.77;1.67;;;8.80;99.90;;;;;;5012685;28;20412;-61
2021/05/17 04:20:14;;;;;;;2.83;1.80;;;8.90;99.90;;;;;;5012250;28;20711;-60
2021/05/17 04:22:40;;;;;;;1.80;1.40;;;8.80;99.90;;;;;;5012623;28;20180;-61
2021/05/17 04:25:07;;;;;;;3.00;1.50;;;8.80;99.90;;;;;;5012522;28;21007;-60
2021/05/17 04:27:33;;;;;;;3.13;1.97;;;8.80;99.90;;;;;;5012443;28;20885;-61
2021/05/17 04:29:58;;;;;;;3.90;1.67;;;8.90;99.90;;;;;;5011856;28;20459;-62
2021/05/17 04:32:24;;;;;;;1.90;1.80;;;8.80;99.90;;;;;;5012386;28;20657;-62
2021/05/17 04:34:49;;;;;;;2.10;1.80;;;8.80;99.90;;;;;;5012323;28;20178;-62
2021/05/17 04:37:15;;;;;;;1.70;1.60;;;8.80;99.90;;;;;;5012389;28;20526;-61
2021/05/17 04:39:41;;;;;;;1.80;1.53;;;8.90;99.90;;;;;;5012070;28;20616;-62
2021/05/17 04:42:06;;;;;;;1.50;1.50;;;8.80;99.90;;;;;;5012092;28;20196;-62
2021/05/17 04:44:32;;;;;;;1.70;1.60;;;8.80;99.90;;;;;;5012246;28;20205;-60
2021/05/17 04:46:57;;;;;;;1.80;1.70;;;8.80;99.90;;;;;;5012289;28;20197;-62
2021/05/17 04:49:23;;;;;;;2.70;1.73;;;8.90;99.90;;;;;;5011835;28;20200;-61
2021/05/17 04:51:49;;;;;;;1.87;1.77;;;8.90;99.90;;;;;;5012150;28;20181;-61
2021/05/17 04:54:14;;;;;;;2.27;1.50;;;8.90;99.90;;;;;;5012155;28;20687;-61
2021/05/17 04:56:40;;;;;;;1.80;1.70;;;8.90;99.90;;;;;;5012149;28;20411;-61
2021/05/17 04:59:06;;;;;;;3.40;1.73;;;8.90;99.90;;;;;;5011745;28;20173;-61
2021/05/17 05:01:31;;;;;;;2.60;1.83;;;9.00;99.90;;;;;;5012227;28;20221;-62
2021/05/17 05:03:57;;;;;;;1.70;1.60;;;9.00;99.90;;;;;;5011887;28;20207;-61
2021/05/17 05:06:22;;;;;;;1.40;1.37;;;9.00;99.90;;;;;;5012096;28;20192;-61
2021/05/17 05:08:48;;;;;;;2.30;1.70;;;9.00;99.90;;;;;;5011968;28;20236;-61
2021/05/17 05:11:13;;;;;;;3.60;2.00;;;9.00;99.90;;;;;;5011761;28;20184;-62
2021/05/17 05:13:39;;;;;;;1.97;1.87;;;9.00;99.90;;;;;;5011889;28;20170;-61
2021/05/17 05:16:04;;;;;;;2.00;1.57;;;9.10;99.90;;;;;;5012009;28;20178;-61
2021/05/17 05:18:30;;;;;;;5.10;1.93;;;9.10;99.90;;;;;;5011833;28;20226;-62
2021/05/17 05:20:56;;;;;;;4.40;1.30;;;9.00;99.90;;;;;;5011602;28;20204;-61
2021/05/17 05:23:21;;;;;;;1.90;1.70;;;9.00;99.90;;;;;;5011943;28;20196;-62
2021/05/17 05:28:26;;;;;;;2.33;1.50;;;9.00;99.90;;;;;;5012073;28;20250;-62
2021/05/17 05:30:58;;;;;;;3.03;1.33;;;9.10;99.90;;;;;;5011524;28;20451;-61
2021/05/17 05:33:24;;;;;;;1.47;1.43;;;9.10;99.90;;;;;;5012006;28;20530;-61
2021/05/17 05:35:50;;;;;;;5.63;1.53;;;9.10;99.90;;;;;;5011784;28;20451;-62
2021/05/17 05:38:16;;;;;;;2.03;1.80;;;9.10;99.90;;;;;;5011790;28;20171;-62
2021/05/17 05:40:42;;;;;;;1.90;1.50;;;9.00;99.90;;;;;;5011257;28;20538;-62
2021/05/17 05:43:07;;;;;;;1.70;1.60;;;9.00;99.90;;;;;;5014808;28;20252;-62
2021/05/17 05:45:42;;;;;;;1.87;1.77;;;9.10;99.90;;;;;;5015483;28;20169;-62
2021/05/17 05:48:08;;;;;;;1.20;1.10;;;9.10;99.90;;;;;;5015548;28;20177;-62
2021/05/17 05:50:33;;;;;;;2.07;1.60;;;9.20;99.90;;;;;;5015214;28;20804;-61
2021/05/17 05:52:59;;;;;;;2.50;2.07;;;9.20;99.90;;;;;;5015282;28;20169;-61
2021/05/17 05:55:25;;;;;;;1.50;1.40;;;9.30;99.90;;;;;;5015206;28;20253;-61
2021/05/17 05:57:50;;;;;;;1.93;1.57;;;9.30;99.90;;;;;;5015324;28;20173;-61
2021/05/17 06:00:17;;;;;;;1.50;1.40;;;9.30;99.90;;;;;;5014800;28;20247;-62
2021/05/17 06:02:43;;;;;;;1.83;1.57;;;9.30;99.90;;;;;;5015107;28;20174;-62
2021/05/17 06:05:10;;;;;;;1.50;1.40;;;9.40;99.90;;;;;;5013810;28;20459;-62
2021/05/17 06:07:36;;;;;;;3.30;1.70;;;9.40;99.90;;;;;;5015030;28;20169;-60
2021/05/17 06:10:03;;;;;;;2.03;1.20;;;9.40;99.90;;;;;;5014587;28;20424;-61
2021/05/17 06:12:29;;;;;;;3.70;1.20;;;9.50;99.90;;;;;;5014920;28;20444;-62
2021/05/17 06:15:04;;;;;;;1.50;1.40;;;9.40;99.90;;;;;;5014837;28;20470;-62
2021/05/17 06:17:30;;;;;;;4.13;1.50;;;9.50;99.90;;;;;;5015115;28;20498;-62
2021/05/17 06:19:56;;;;;;;2.00;1.60;;;9.50;99.90;;;;;;5014474;28;20503;-61
2021/05/17 06:22:26;;;;;;;1.57;1.50;;;9.50;99.90;;;;;;5014795;28;20624;-61
2021/05/17 06:24:53;;;;;;;1.80;1.33;;;9.60;99.90;;;;;;5014683;28;20280;-61
2021/05/17 06:27:19;;;;;;;1.60;1.50;;;9.60;99.90;;;;;;5014741;28;20446;-61
2021/05/17 06:29:45;;;;;;;3.50;1.83;;;9.50;99.90;;;;;;5014279;28;20428;-62
2021/05/17 06:32:11;;;;;;;1.70;1.60;;;9.50;99.90;;;;;;5014543;28;20424;-62
2021/05/17 06:34:40;;;;;;;1.50;1.40;;;9.60;99.90;;;;;;5014549;28;20412;-62
2021/05/17 06:37:05;;;;;;;2.67;1.33;;;9.50;99.90;;;;;;5014567;28;20423;-61
2021/05/17 06:39:31;;;;;;;2.20;1.37;;;9.60;99.90;;;;;;5014102;28;20424;-61
2021/05/17 06:41:57;;;;;;;5.03;1.60;;;9.60;99.90;;;;;;5014311;28;20185;-62
2021/05/17 06:44:22;;;;;;;4.93;1.60;;;9.70;99.90;;;;;;5014184;28;20324;-62
2021/05/17 06:46:49;;;;;;;2.17;2.07;;;9.70;99.90;;;;;;5014402;28;20549;-62
2021/05/17 06:49:14;;;;;;;1.40;1.33;;;9.70;99.90;;;;;;5013941;28;21606;-61
2021/05/17 06:51:40;;;;;;;1.60;1.50;;;9.70;99.90;;;;;;5014228;28;20440;-61
2021/05/17 06:54:08;;;;;;;1.73;1.60;;;9.70;99.90;;;;;;5013838;28;20246;-61
2021/05/17 06:56:45;;;;;;;1.50;1.40;;;9.60;99.90;;;;;;5014114;28;20177;-62
2021/05/17 06:59:14;;;;;;;1.53;1.43;;;9.60;99.90;;;;;;5013989;28;21004;-61
2021/05/17 07:01:40;;;;;;;2.20;1.60;;;9.60;99.90;;;;;;5014195;28;20756;-61
2021/05/17 07:04:09;;;;;;;3.90;1.40;;;9.60;99.90;;;;;;5013887;28;20451;-62
2021/05/17 07:06:35;;;;;;;4.73;1.60;;;9.70;99.90;;;;;;5013957;28;20923;-62
2021/05/17 07:11:59;;;;;;;2.20;1.80;;;9.90;99.90;;;;;;5013917;28;20486;-62
2021/05/17 07:14:25;;;;;;;7.27;2.57;;;9.90;99.90;;;;;;5013930;28;20423;-60
2021/05/17 07:16:51;;;;;;;1.90;1.40;;;10.00;99.90;;;;;;5013973;28;20495;-62
2021/05/17 07:19:17;;;;;;;3.70;1.80;;;10.10;99.90;;;;;;5013358;28;20438;-61
2021/05/17 07:24:28;;;;;;;1.57;1.47;;;10.20;99.90;;;;;;5013581;28;20207;-62
2021/05/17 07:26:54;;;;;;;4.80;1.50;;;10.20;99.90;;;;;;5013611;28;20392;-62
2021/05/17 07:29:20;;;;;;;1.87;1.73;;;10.20;99.90;;;;;;5013419;28;20428;-62
2021/05/17 07:31:47;;;;;;;1.63;1.50;;;10.10;99.90;;;;;;5013532;28;20519;-61
2021/05/17 07:34:12;;;;;;;3.13;1.77;;;10.20;99.90;;;;;;5013309;28;20404;-62
2021/05/17 07:36:38;;;;;;;1.60;1.50;;;10.20;99.90;;;;;;5013359;28;20775;-62
2021/05/17 07:39:04;;;;;;;1.97;1.87;;;10.20;99.90;;;;;;5013138;28;20439;-62
2021/05/17 07:41:30;;;;;;;1.47;1.40;;;10.20;99.90;;;;;;5013301;28;20193;-62
2021/05/17 07:43:56;;;;;;;2.03;1.67;;;10.20;99.90;;;;;;5013135;28;20535;-62
2021/05/17 07:46:22;;;;;;;2.43;1.40;;;10.10;99.90;;;;;;5013263;28;20201;-62
2021/05/17 07:51:31;;;;;;;5.23;2.20;;;10.10;99.90;;;;;;5013166;28;20184;-61
2021/05/17 07:53:57;;;;;;;3.73;2.50;;;10.20;99.90;;;;;;5013155;28;20503;-62
2021/05/17 07:56:23;;;;;;;1.53;1.43;;;10.30;99.90;;;;;;5013095;28;20166;-62
2021/05/17 07:58:51;;;;;;;1.40;1.30;;;10.40;99.90;;;;;;5012926;28;20195;-62
2021/05/17 08:01:17;;;;;;;1.43;1.40;;;10.60;99.90;;;;;;5012747;28;21003;-62
2021/05/17 08:03:42;;;;;;;1.47;1.37;;;10.80;99.90;;;;;;5012535;28;20826;-62
2021/05/17 08:06:08;;;;;;;1.80;1.70;;;11.00;99.90;;;;;;5012439;28;20407;-62
2021/05/17 08:08:34;;;;;;;3.43;1.20;;;11.20;99.90;;;;;;5012830;28;20588;-62
2021/05/17 08:11:01;;;;;;;3.53;1.80;;;11.20;99.90;;;;;;5012557;28;20216;-62
2021/05/17 08:13:27;;;;;;;1.60;1.50;;;11.30;99.90;;;;;;5012723;28;20184;-62
2021/05/17 08:15:52;;;;;;;3.23;2.47;;;11.40;99.90;;;;;;5012634;28;20417;-62
2021/05/17 08:18:18;;;;;;;2.77;2.30;;;11.50;99.90;;;;;;5012707;28;20408;-62
2021/05/17 08:20:44;;;;;;;1.80;1.60;;;11.70;99.90;;;;;;5012231;28;20221;-62
2021/05/17 08:23:13;;;;;;;2.10;1.90;;;11.90;99.90;;;;;;5012469;28;20169;-62
2021/05/17 08:25:39;;;;;;;1.37;1.27;;;12.30;99.90;;;;;;5012558;28;20254;-62
2021/05/17 08:28:05;;;;;;;1.20;1.20;;;12.40;99.90;;;;;;5012526;28;20438;-62
2021/05/17 08:30:32;;;;;;;1.43;1.40;;;12.50;99.90;;;;;;5012189;28;21012;-62
2021/05/17 08:32:58;;;;;;;3.90;1.60;;;12.60;99.90;;;;;;5012592;28;20558;-62
2021/05/17 08:35:24;;;;;;;5.87;1.67;;;12.40;99.90;;;;;;5012419;28;20426;-62
2021/05/17 08:37:49;;;;;;;5.23;1.50;;;12.20;99.90;;;;;;5012428;28;20438;-64
2021/05/17 08:40:15;;;;;;;1.53;1.27;;;12.10;99.90;;;;;;5011898;28;20205;-60
2021/05/17 08:42:41;;;;;;;2.53;1.40;;;12.00;99.90;;;;;;5012236;28;20176;-65
2021/05/17 08:45:07;;;;;;;1.63;1.50;;;11.90;99.90;;;;;;5012229;28;20200;-64
2021/05/17 08:47:33;;;;;;;2.73;2.10;;;11.90;99.90;;;;;;5012182;28;20421;-64
2021/05/17 08:49:59;;;;;;;1.40;1.30;;;11.90;99.90;;;;;;5011841;28;20826;-64
2021/05/17 08:52:25;;;;;;;2.20;1.50;;;11.80;99.90;;;;;;5012134;28;20414;-63
2021/05/17 08:54:51;;;;;;;2.23;1.90;;;11.90;99.90;;;;;;5012146;28;20644;-62
2021/05/17 08:57:17;;;;;;;3.47;1.63;;;12.30;99.90;;;;;;5012110;28;20414;-62
2021/05/17 08:59:42;;;;;;;1.33;1.17;;;12.70;99.90;;;;;;5011724;28;20462;-63
2021/05/17 09:02:08;;;;;;;1.60;1.50;;;12.70;99.90;;;;;;5012044;28;20208;-64
2021/05/17 09:04:34;;;;;;;3.40;1.20;;;12.80;99.90;;;;;;5012160;28;20211;-63
2021/05/17 09:07:00;;;;;;;2.50;1.63;;;13.00;99.90;;;;;;5012131;28;20171;-63
2021/05/17 09:09:31;;;;;;;2.53;1.70;;;13.20;99.90;;;;;;5011802;28;20208;-63
2021/05/17 09:12:00;;;;;;;1.83;1.60;;;13.10;99.90;;;;;;5011998;28;20247;-63
2021/05/17 09:14:27;;;;;;;1.50;1.40;;;12.80;99.90;;;;;;5011988;28;20474;-64
2021/05/17 09:16:57;;;;;;;1.00;1.00;;;12.80;99.90;;;;;;5014939;28;20419;-63
2021/05/17 09:19:23;;;;;;;2.33;1.70;;;12.80;99.90;;;;;;5015580;28;20943;-63
2021/05/17 09:22:06;;;;;;;1.40;1.30;;;12.90;99.90;;;;;;5015950;28;20419;-65
2021/05/17 09:24:51;;;;;;;1.50;1.40;;;13.10;99.90;;;;;;5015802;28;20443;-63
2021/05/17 09:27:25;;;;;;;1.60;1.50;;;13.10;99.90;;;;;;5016037;28;20490;-62
2021/05/17 09:30:00;;;;;;;1.23;1.17;;;13.10;99.90;;;;;;5015450;28;20438;-62
2021/05/17 09:32:35;;;;;;;2.30;1.50;;;13.10;99.90;;;;;;5015711;28;20396;-63
2021/05/17 09:35:09;;;;;;;1.80;1.60;;;13.20;99.90;;;;;;5015602;28;20407;-65
2021/05/17 09:38:05;;;;;;;1.13;1.13;;;13.40;99.90;;;;;;5016079;28;20411;-65
2021/05/17 09:40:32;;;;;;;1.73;1.63;;;13.50;99.90;;;;;;5015475;28;20475;-62
2021/05/17 09:43:18;;;;;;;1.47;1.40;;;13.60;99.90;;;;;;5015642;28;20833;-62
2021/05/17 09:45:46;;;;;;;1.00;1.00;;;13.70;99.90;;;;;;5015394;28;20428;-62
2021/05/17 09:48:14;;;;;;;1.60;1.40;;;13.50;99.90;;;;;;5015435;28;20410;-62
2021/05/17 09:51:05;;;;;;;1.20;1.10;;;13.50;99.90;;;;;;5015040;28;20416;-62
2021/05/17 09:53:36;;;;;;;1.73;1.63;;;13.00;99.90;;;;;;5015214;28;20392;-62
2021/05/17 09:56:28;;;;;;;2.60;1.30;;;12.70;99.90;;;;;;5015488;28;20867;-62
2021/05/17 09:58:58;;;;;;;2.53;1.43;;;12.50;99.90;;;;;;5012160;28;20420;-62
2021/05/17 10:01:28;;;;;;;1.60;1.23;;;12.40;99.90;;;;;;5015164;28;20408;-63
2021/05/17 10:04:01;;;;;;;3.40;1.57;;;12.40;99.90;;;;;;5014866;28;20509;-63
2021/05/17 10:06:27;;;;;;;1.40;1.30;;;12.10;99.90;;;;;;5015350;28;20814;-63
2021/05/17 10:08:54;;;;;;;1.50;1.40;;;11.80;99.90;;;;;;5014850;28;20416;-64
2021/05/17 10:11:21;;;;;;;1.27;1.27;;;11.90;99.90;;;;;;5015074;28;20431;-64
2021/05/17 10:13:48;;;;;;;1.63;1.30;;;12.00;99.90;;;;;;5014947;28;20554;-63
2021/05/17 10:16:15;;;;;;;2.30;2.13;;;11.80;99.90;;;;;;5015032;28;20491;-64
2021/05/17 10:18:42;;;;;;;1.47;1.47;;;11.70;99.90;;;;;;5014728;28;20414;-64
2021/05/17 10:21:10;;;;;;;1.23;1.20;;;11.60;99.90;;;;;;5014546;28;20434;-64
2021/05/17 10:23:38;;;;;;;1.87;1.00;;;11.50;99.90;;;;;;5014637;28;20449;-64
2021/05/17 10:26:29;;;;;;;1.40;1.33;;;11.40;99.90;;;;;;5014723;28;20402;-63
2021/05/17 10:29:00;;;;;;;1.00;1.00;;;11.50;99.90;;;;;;5013868;28;20413;-63
2021/05/17 10:31:26;;;;;;;1.27;1.20;;;11.40;99.90;;;;;;5014653;28;20480;-63
2021/05/17 10:34:01;;;;;;;1.50;1.40;;;11.40;99.90;;;;;;5014579;28;20474;-63
2021/05/17 10:36:54;;;;;;;2.60;1.30;;;11.40;99.90;;;;;;5014694;28;20439;-62
2021/05/17 10:39:30;;;;;;;4.80;1.53;;;11.50;99.90;;;;;;5014178;28;20429;-61
2021/05/17 10:42:23;;;;;;;1.97;1.50;;;11.60;99.90;;;;;;5014436;28;20436;-62
2021/05/17 10:48:13;;;;;;;2.53;1.33;;;11.90;99.90;;;;;;5014224;28;20429;-64
2021/05/17 10:50:41;;;;;;;3.13;1.40;;;11.90;99.90;;;;;;5003805;28;20449;-63
2021/05/17 10:53:26;;;;;;;2.23;1.77;;;12.10;99.90;;;;;;5014210;28;20402;-63
2021/05/17 10:55:56;;;;;;;1.10;1.10;;;12.30;99.90;;;;;;5014094;28;20458;-63
2021/05/17 11:01:57;;;;;;;1.07;1.07;;;11.90;99.90;;;;;;5014159;28;20394;-63
2021/05/17 11:04:27;;;;;;;1.30;1.20;;;11.80;99.90;;;;;;5013841;28;21012;-62
2021/05/17 11:07:24;;;;;;;1.53;1.20;;;11.80;99.90;;;;;;5013978;28;20909;-62
2021/05/17 11:09:57;;;;;;;1.07;1.07;;;11.60;99.90;;;;;;5001852;28;20868;-63
2021/05/17 11:12:25;;;;;;;2.40;1.20;;;11.70;99.90;;;;;;5013869;28;20415;-62
2021/05/17 11:15:06;;;;;;;1.13;1.13;;;11.70;99.90;;;;;;5013638;28;20459;-62
2021/05/17 11:18:02;;;;;;;5.90;1.40;;;11.60;99.90;;;;;;5013659;28;20410;-63
2021/05/17 11:20:40;;;;;;;2.77;1.90;;;11.60;99.90;;;;;;5013317;28;20433;-62
2021/05/17 11:23:10;;;;;;;1.67;1.67;;;11.80;99.90;;;;;;5013624;28;20410;-62
2021/05/17 11:26:04;;;;;;;3.90;1.50;;;12.00;99.90;;;;;;5013558;28;20461;-62
2021/05/17 11:28:39;;;;;;;1.90;1.80;;;12.10;99.90;;;;;;5013880;28;20380;-62
2021/05/17 11:33:54;;;;;;;1.30;1.27;;;12.00;99.90;;;;;;5013407;28;20424;-62
2021/05/17 11:36:35;;;;;;;1.87;1.50;;;12.10;99.90;;;;;;5013459;28;20407;-61
2021/05/17 11:39:17;;;;;;;1.60;1.50;;;12.10;99.90;;;;;;5012295;28;20402;-61
2021/05/17 11:41:58;;;;;;;1.30;1.30;;;11.80;99.90;;;;;;5013306;28;20427;-62
2021/05/17 11:44:31;;;;;;;2.30;2.03;;;11.80;99.90;;;;;;5013400;28;20473;-60
2021/05/17 11:46:59;;;;;;;2.37;1.80;;;11.60;99.90;;;;;;5013291;28;20401;-61
2021/05/17 11:49:29;;;;;;;1.80;1.50;;;11.60;99.90;;;;;;5012935;28;20884;-62
2021/05/17 11:51:56;;;;;;;2.60;2.07;;;11.60;99.90;;;;;;5013057;28;20403;-61
2021/05/17 11:54:24;;;;;;;2.70;2.47;;;11.40;99.90;;;;;;5012995;28;20409;-61
2021/05/17 11:56:55;;;;;;;2.87;1.73;;;11.30;99.90;;;;;;5013069;28;20411;-62
2021/05/17 11:59:23;;;;;;;2.07;1.97;;;11.20;99.90;;;;;;5012802;28;20463;-63
2021/05/17 12:02:01;;;;;;;1.93;1.73;;;11.30;99.90;;;;;;5089453;28;20505;-64
2021/05/17 12:04:32;;;;;;;1.70;1.60;;;11.20;99.90;;;;;;5089504;28;20386;-63
2021/05/17 12:07:00;;;;;;;1.83;1.73;;;11.20;99.90;;;;;;5089305;28;20397;-63
2021/05/17 12:09:42;;;;;;;4.13;2.07;;;11.30;99.90;;;;;;5089181;28;20456;-63
2021/05/17 12:12:11;;;;;;;3.57;2.27;;;11.60;99.90;;;;;;5089315;28;20758;-61
2021/05/17 12:14:43;;;;;;;1.70;1.60;;;11.70;99.90;;;;;;5089229;28;20399;-61
2021/05/17 12:17:17;;;;;;;6.13;5.63;;;11.90;99.90;;;;;;5089251;28;20809;-61
2021/05/17 12:19:46;;;;;;;2.90;2.60;;;12.10;99.90;;;;;;5088749;28;20934;-62
2021/05/17 12:22:16;;;;;;;1.63;1.53;;;12.10;99.90;;;;;;5089250;28;20454;-61
2021/05/17 12:24:42;;;;;;;2.60;2.37;;;12.10;99.90;;;;;;5089166;28;20402;-61
2021/05/17 12:27:10;;;;;;;1.57;1.50;;;12.10;99.90;;;;;;5089088;28;20412;-61
2021/05/17 12:30:00;;;;;;;2.10;1.90;;;12.20;99.90;;;;;;5088579;28;20787;-61
2021/05/17 12:32:40;;;;;;;2.40;2.30;;;12.20;99.90;;;;;;5089163;28;20415;-62
2021/05/17 12:35:11;;;;;;;3.83;2.13;;;12.50;99.90;;;;;;5089151;28;20824;-62
2021/05/17 12:37:45;;;;;;;3.40;3.10;;;12.60;99.90;;;;;;5088797;28;20449;-58
2021/05/17 12:40:23;;;;;;;3.60;2.53;;;12.50;99.90;;;;;;5088333;28;20454;-58
2021/05/17 12:43:04;;;;;;;4.23;2.60;;;12.50;99.90;;;;;;5088887;28;20408;-60
2021/05/17 12:45:30;;;;;;;2.80;2.50;;;12.50;99.90;;;;;;5088638;28;20400;-61
2021/05/17 12:47:56;;;;;;;2.80;2.57;;;12.40;99.90;;;;;;5088617;28;20545;-62
2021/05/17 12:50:33;;;;;;;3.03;2.40;;;12.40;99.90;;;;;;5088313;28;20426;-63
2021/05/17 12:53:02;;;;;;;2.93;2.60;;;12.30;99.90;;;;;;5088425;28;20412;-61
2021/05/17 12:55:28;;;;;;;2.60;2.40;;;12.30;99.90;;;;;;5088562;28;20407;-62
2021/05/17 12:57:56;;;;;;;3.00;2.70;;;12.40;99.90;;;;;;5088457;28;20418;-62
2021/05/17 13:00:51;;;;;;;4.60;3.23;;;12.20;99.90;;;;;;5087975;28;20259;-62
2021/05/17 13:03:26;;;;;;;5.33;3.83;;;12.20;99.90;;;;;;5088140;28;20400;-61
2021/05/17 13:06:01;;;;;;;3.80;3.50;;;12.00;99.90;;;;;;5088397;28;20388;-62
2021/05/17 13:08:35;;;;;;;3.87;3.57;;;11.80;99.90;;;;;;5088164;28;20394;-63
2021/05/17 13:11:04;;;;;;;3.60;3.40;;;11.70;99.90;;;;;;5087683;28;20421;-63
2021/05/17 13:14:15;;;;;;;4.57;4.17;;;11.90;99.90;;;;;;5074039;28;20459;-63
2021/05/17 13:16:50;;;;;;;3.57;3.20;;;12.00;99.90;;;;;;5073536;28;20420;-63
2021/05/17 13:20:00;;;;;;;4.30;3.83;;;12.10;99.90;;;;;;5074204;28;20397;-62
2021/05/17 13:30:55;;;;;;;3.87;3.43;;;12.30;99.90;;;;;;5052772;28;20793;-64
2021/05/17 13:33:34;;;;;;;4.87;3.93;;;12.60;99.90;;;;;;5055386;28;20410;-63
2021/05/17 13:36:04;;;;;;;4.73;3.80;;;12.80;99.90;;;;;;5054110;28;20402;-63
2021/05/17 13:38:35;;;;;;;4.37;3.43;;;13.00;99.90;;;;;;5053460;28;20839;-64
2021/05/17 13:41:02;;;;;;;3.57;3.17;;;12.90;99.90;;;;;;5053898;28;20569;-65